sensor_id;sensor_type;location;lat;lon;timestamp;P1;durP1;ratioP1;P2;durP2;ratioP2
36383;SDS011;22418;51.210;6.976;2024-03-02T00:02:24;3.23;;;1.87;;
36383;SDS011;22418;51.210;6.976;2024-03-02T00:04:55;2.85;;;1.90;;
36383;SDS011;22418;51.210;6.976;2024-03-02T00:07:25;7.50;;;2.03;;
36383;SDS011;22418;51.210;6.976;2024-03-02T00:09:56;4.97;;;1.97;;
36383;SDS011;22418;51.210;6.976;2024-03-02T00:12:26;4.43;;;1.60;;
36383;SDS011;22418;51.210;6.976;2024-03-02T00:14:57;4.00;;;1.47;;
36383;SDS011;22418;51.210;6.976;2024-03-02T00:17:32;6.22;;;2.03;;
36383;SDS011;22418;51.210;6.976;2024-03-02T00:20:03;2.50;;;1.63;;
36383;SDS011;22418;51.210;6.976;2024-03-02T00:22:36;7.10;;;2.65;;
36383;SDS011;22418;51.210;6.976;2024-03-02T00:25:07;4.10;;;1.52;;
36383;SDS011;22418;51.210;6.976;2024-03-02T00:27:40;4.45;;;1.40;;
36383;SDS011;22418;51.210;6.976;2024-03-02T00:33:06;4.60;;;1.88;;
36383;SDS011;22418;51.210;6.976;2024-03-02T00:35:37;3.97;;;1.60;;
36383;SDS011;22418;51.210;6.976;2024-03-02T00:38:08;2.53;;;1.53;;
36383;SDS011;22418;51.210;6.976;2024-03-02T00:40:40;3.33;;;1.67;;
36383;SDS011;22418;51.210;6.976;2024-03-02T00:46:12;4.57;;;1.40;;
36383;SDS011;22418;51.210;6.976;2024-03-02T00:51:26;5.93;;;1.73;;
36383;SDS011;22418;51.210;6.976;2024-03-02T00:53:59;3.25;;;1.42;;
36383;SDS011;22418;51.210;6.976;2024-03-02T00:56:31;2.60;;;1.50;;
36383;SDS011;22418;51.210;6.976;2024-03-02T00:59:02;2.90;;;1.52;;
36383;SDS011;22418;51.210;6.976;2024-03-02T01:01:33;4.87;;;1.63;;
36383;SDS011;22418;51.210;6.976;2024-03-02T01:04:04;2.80;;;1.17;;
36383;SDS011;22418;51.210;6.976;2024-03-02T01:06:35;2.25;;;1.40;;
36383;SDS011;22418;51.210;6.976;2024-03-02T01:09:06;2.75;;;1.40;;
36383;SDS011;22418;51.210;6.976;2024-03-02T01:11:36;4.53;;;1.80;;
36383;SDS011;22418;51.210;6.976;2024-03-02T01:14:07;3.00;;;1.43;;
36383;SDS011;22418;51.210;6.976;2024-03-02T01:16:37;1.53;;;1.20;;
36383;SDS011;22418;51.210;6.976;2024-03-02T01:19:08;3.70;;;1.70;;
36383;SDS011;22418;51.210;6.976;2024-03-02T01:24:10;6.90;;;1.50;;
36383;SDS011;22418;51.210;6.976;2024-03-02T01:26:40;4.17;;;1.87;;
36383;SDS011;22418;51.210;6.976;2024-03-02T01:29:11;6.40;;;1.50;;
36383;SDS011;22418;51.210;6.976;2024-03-02T01:31:41;3.60;;;1.67;;
36383;SDS011;22418;51.210;6.976;2024-03-02T01:34:12;3.97;;;1.47;;
36383;SDS011;22418;51.210;6.976;2024-03-02T01:36:42;5.90;;;1.60;;
36383;SDS011;22418;51.210;6.976;2024-03-02T01:39:13;3.43;;;1.60;;
36383;SDS011;22418;51.210;6.976;2024-03-02T01:41:44;8.57;;;1.87;;
36383;SDS011;22418;51.210;6.976;2024-03-02T01:44:14;3.97;;;1.17;;
36383;SDS011;22418;51.210;6.976;2024-03-02T01:46:45;4.57;;;1.07;;
36383;SDS011;22418;51.210;6.976;2024-03-02T01:49:15;3.50;;;1.40;;
36383;SDS011;22418;51.210;6.976;2024-03-02T01:51:46;4.97;;;1.37;;
36383;SDS011;22418;51.210;6.976;2024-03-02T01:54:16;4.30;;;1.40;;
36383;SDS011;22418;51.210;6.976;2024-03-02T01:56:47;2.70;;;1.53;;
36383;SDS011;22418;51.210;6.976;2024-03-02T01:59:17;3.40;;;1.20;;
36383;SDS011;22418;51.210;6.976;2024-03-02T02:01:48;3.23;;;1.40;;
36383;SDS011;22418;51.210;6.976;2024-03-02T02:04:19;2.33;;;1.20;;
36383;SDS011;22418;51.210;6.976;2024-03-02T02:06:53;3.20;;;1.30;;
36383;SDS011;22418;51.210;6.976;2024-03-02T02:09:24;5.05;;;1.30;;
36383;SDS011;22418;51.210;6.976;2024-03-02T02:11:55;6.00;;;1.58;;
36383;SDS011;22418;51.210;6.976;2024-03-02T02:14:25;3.03;;;1.13;;
36383;SDS011;22418;51.210;6.976;2024-03-02T02:16:56;3.13;;;1.30;;
36383;SDS011;22418;51.210;6.976;2024-03-02T02:19:27;6.28;;;1.50;;
36383;SDS011;22418;51.210;6.976;2024-03-02T02:21:58;2.28;;;1.15;;
36383;SDS011;22418;51.210;6.976;2024-03-02T02:24:28;2.67;;;1.30;;
36383;SDS011;22418;51.210;6.976;2024-03-02T02:26:59;3.47;;;1.60;;
36383;SDS011;22418;51.210;6.976;2024-03-02T02:29:29;6.17;;;1.67;;
36383;SDS011;22418;51.210;6.976;2024-03-02T02:32:00;2.63;;;1.07;;
36383;SDS011;22418;51.210;6.976;2024-03-02T02:34:31;3.37;;;1.20;;
36383;SDS011;22418;51.210;6.976;2024-03-02T02:37:01;6.17;;;1.73;;
36383;SDS011;22418;51.210;6.976;2024-03-02T02:39:32;4.97;;;1.43;;
36383;SDS011;22418;51.210;6.976;2024-03-02T02:42:02;4.30;;;1.50;;
36383;SDS011;22418;51.210;6.976;2024-03-02T02:44:33;3.10;;;1.13;;
36383;SDS011;22418;51.210;6.976;2024-03-02T02:47:04;4.43;;;1.50;;
36383;SDS011;22418;51.210;6.976;2024-03-02T02:49:34;4.47;;;1.20;;
36383;SDS011;22418;51.210;6.976;2024-03-02T02:52:05;3.17;;;1.50;;
36383;SDS011;22418;51.210;6.976;2024-03-02T02:54:37;2.10;;;1.00;;
36383;SDS011;22418;51.210;6.976;2024-03-02T02:57:08;2.88;;;1.20;;
36383;SDS011;22418;51.210;6.976;2024-03-02T02:59:38;4.23;;;1.20;;
36383;SDS011;22418;51.210;6.976;2024-03-02T03:02:09;4.73;;;1.57;;
36383;SDS011;22418;51.210;6.976;2024-03-02T03:04:39;3.10;;;1.60;;
36383;SDS011;22418;51.210;6.976;2024-03-02T03:07:10;6.00;;;1.50;;
36383;SDS011;22418;51.210;6.976;2024-03-02T03:09:43;5.13;;;1.63;;
36383;SDS011;22418;51.210;6.976;2024-03-02T03:12:13;3.15;;;1.10;;
36383;SDS011;22418;51.210;6.976;2024-03-02T03:14:44;2.60;;;1.10;;
36383;SDS011;22418;51.210;6.976;2024-03-02T03:17:15;4.17;;;1.83;;
36383;SDS011;22418;51.210;6.976;2024-03-02T03:19:45;5.30;;;1.70;;
36383;SDS011;22418;51.210;6.976;2024-03-02T03:22:16;2.93;;;1.30;;
36383;SDS011;22418;51.210;6.976;2024-03-02T03:24:46;3.17;;;1.30;;
36383;SDS011;22418;51.210;6.976;2024-03-02T03:27:17;3.13;;;1.30;;
36383;SDS011;22418;51.210;6.976;2024-03-02T03:29:47;5.63;;;1.47;;
36383;SDS011;22418;51.210;6.976;2024-03-02T03:32:18;5.43;;;1.40;;
36383;SDS011;22418;51.210;6.976;2024-03-02T03:34:51;2.33;;;1.20;;
36383;SDS011;22418;51.210;6.976;2024-03-02T03:37:21;3.35;;;1.42;;
36383;SDS011;22418;51.210;6.976;2024-03-02T03:39:52;1.57;;;1.10;;
36383;SDS011;22418;51.210;6.976;2024-03-02T03:42:22;2.27;;;1.27;;
36383;SDS011;22418;51.210;6.976;2024-03-02T03:44:53;3.20;;;1.50;;
36383;SDS011;22418;51.210;6.976;2024-03-02T03:47:24;3.13;;;1.85;;
36383;SDS011;22418;51.210;6.976;2024-03-02T03:49:54;1.73;;;1.20;;
36383;SDS011;22418;51.210;6.976;2024-03-02T03:52:25;4.60;;;1.63;;
36383;SDS011;22418;51.210;6.976;2024-03-02T03:54:56;3.07;;;1.20;;
36383;SDS011;22418;51.210;6.976;2024-03-02T03:57:26;1.90;;;1.20;;
36383;SDS011;22418;51.210;6.976;2024-03-02T03:59:57;6.28;;;1.40;;
36383;SDS011;22418;51.210;6.976;2024-03-02T04:02:28;4.60;;;1.40;;
36383;SDS011;22418;51.210;6.976;2024-03-02T04:04:58;3.13;;;1.23;;
36383;SDS011;22418;51.210;6.976;2024-03-02T04:07:29;5.63;;;1.50;;
36383;SDS011;22418;51.210;6.976;2024-03-02T04:09:59;3.70;;;1.57;;
36383;SDS011;22418;51.210;6.976;2024-03-02T04:12:30;4.33;;;1.37;;
36383;SDS011;22418;51.210;6.976;2024-03-02T04:15:00;4.97;;;1.30;;
36383;SDS011;22418;51.210;6.976;2024-03-02T04:17:32;2.80;;;1.20;;
36383;SDS011;22418;51.210;6.976;2024-03-02T04:20:03;5.45;;;1.30;;
36383;SDS011;22418;51.210;6.976;2024-03-02T04:22:35;4.18;;;1.38;;
36383;SDS011;22418;51.210;6.976;2024-03-02T04:25:05;2.43;;;1.30;;
36383;SDS011;22418;51.210;6.976;2024-03-02T04:27:37;3.22;;;1.20;;
36383;SDS011;22418;51.210;6.976;2024-03-02T04:30:07;3.00;;;1.37;;
36383;SDS011;22418;51.210;6.976;2024-03-02T04:32:38;5.00;;;1.58;;
36383;SDS011;22418;51.210;6.976;2024-03-02T04:35:09;3.43;;;1.63;;
36383;SDS011;22418;51.210;6.976;2024-03-02T04:37:40;3.03;;;1.33;;
36383;SDS011;22418;51.210;6.976;2024-03-02T04:40:10;2.63;;;1.40;;
36383;SDS011;22418;51.210;6.976;2024-03-02T04:42:41;3.47;;;1.27;;
36383;SDS011;22418;51.210;6.976;2024-03-02T04:45:13;2.75;;;1.30;;
36383;SDS011;22418;51.210;6.976;2024-03-02T04:47:43;2.77;;;1.43;;
36383;SDS011;22418;51.210;6.976;2024-03-02T04:50:14;4.27;;;1.83;;
36383;SDS011;22418;51.210;6.976;2024-03-02T04:52:44;5.13;;;1.40;;
36383;SDS011;22418;51.210;6.976;2024-03-02T04:55:15;4.20;;;1.60;;
36383;SDS011;22418;51.210;6.976;2024-03-02T04:57:46;1.87;;;1.17;;
36383;SDS011;22418;51.210;6.976;2024-03-02T05:02:48;4.83;;;1.53;;
36383;SDS011;22418;51.210;6.976;2024-03-02T05:05:18;3.00;;;1.47;;
36383;SDS011;22418;51.210;6.976;2024-03-02T05:07:49;4.07;;;1.70;;
36383;SDS011;22418;51.210;6.976;2024-03-02T05:10:19;3.30;;;1.17;;
36383;SDS011;22418;51.210;6.976;2024-03-02T05:12:50;4.03;;;1.70;;
36383;SDS011;22418;51.210;6.976;2024-03-02T05:15:28;3.42;;;1.40;;
36383;SDS011;22418;51.210;6.976;2024-03-02T05:17:59;4.80;;;1.80;;
36383;SDS011;22418;51.210;6.976;2024-03-02T05:20:32;4.63;;;1.85;;
36383;SDS011;22418;51.210;6.976;2024-03-02T05:23:03;5.00;;;2.07;;
36383;SDS011;22418;51.210;6.976;2024-03-02T05:25:33;7.63;;;1.80;;
36383;SDS011;22418;51.210;6.976;2024-03-02T05:28:05;9.15;;;1.88;;
36383;SDS011;22418;51.210;6.976;2024-03-02T05:30:35;4.20;;;1.77;;
36383;SDS011;22418;51.210;6.976;2024-03-02T05:33:06;4.80;;;1.60;;
36383;SDS011;22418;51.210;6.976;2024-03-02T05:35:36;6.67;;;1.90;;
36383;SDS011;22418;51.210;6.976;2024-03-02T05:38:07;3.60;;;1.47;;
36383;SDS011;22418;51.210;6.976;2024-03-02T05:40:38;5.67;;;1.80;;
36383;SDS011;22418;51.210;6.976;2024-03-02T05:43:08;6.60;;;1.60;;
36383;SDS011;22418;51.210;6.976;2024-03-02T05:45:39;4.77;;;1.80;;
36383;SDS011;22418;51.210;6.976;2024-03-02T05:48:09;3.47;;;1.73;;
36383;SDS011;22418;51.210;6.976;2024-03-02T05:50:40;5.07;;;2.03;;
36383;SDS011;22418;51.210;6.976;2024-03-02T05:53:11;4.07;;;1.63;;
36383;SDS011;22418;51.210;6.976;2024-03-02T05:55:41;4.43;;;1.43;;
36383;SDS011;22418;51.210;6.976;2024-03-02T05:58:12;6.30;;;2.00;;
36383;SDS011;22418;51.210;6.976;2024-03-02T06:00:42;4.33;;;1.93;;
36383;SDS011;22418;51.210;6.976;2024-03-02T06:03:13;3.13;;;1.60;;
36383;SDS011;22418;51.210;6.976;2024-03-02T06:05:43;3.43;;;1.63;;
36383;SDS011;22418;51.210;6.976;2024-03-02T06:08:14;3.03;;;1.63;;
36383;SDS011;22418;51.210;6.976;2024-03-02T06:10:45;3.20;;;1.73;;
36383;SDS011;22418;51.210;6.976;2024-03-02T06:13:16;4.05;;;1.85;;
36383;SDS011;22418;51.210;6.976;2024-03-02T06:15:46;5.13;;;1.73;;
36383;SDS011;22418;51.210;6.976;2024-03-02T06:18:17;4.37;;;2.30;;
36383;SDS011;22418;51.210;6.976;2024-03-02T06:20:47;3.33;;;1.73;;
36383;SDS011;22418;51.210;6.976;2024-03-02T06:25:50;5.57;;;2.03;;
36383;SDS011;22418;51.210;6.976;2024-03-02T06:28:20;9.60;;;2.40;;
36383;SDS011;22418;51.210;6.976;2024-03-02T06:30:51;4.03;;;2.03;;
36383;SDS011;22418;51.210;6.976;2024-03-02T06:33:21;4.67;;;1.80;;
36383;SDS011;22418;51.210;6.976;2024-03-02T06:35:52;6.33;;;2.50;;
36383;SDS011;22418;51.210;6.976;2024-03-02T06:38:22;4.23;;;1.80;;
36383;SDS011;22418;51.210;6.976;2024-03-02T06:40:53;3.90;;;1.97;;
36383;SDS011;22418;51.210;6.976;2024-03-02T06:43:25;6.65;;;1.95;;
36383;SDS011;22418;51.210;6.976;2024-03-02T06:45:55;5.80;;;2.07;;
36383;SDS011;22418;51.210;6.976;2024-03-02T06:48:26;4.63;;;2.00;;
36383;SDS011;22418;51.210;6.976;2024-03-02T06:50:56;8.13;;;2.20;;
36383;SDS011;22418;51.210;6.976;2024-03-02T06:53:28;6.40;;;2.33;;
36383;SDS011;22418;51.210;6.976;2024-03-02T06:56:00;4.35;;;1.98;;
36383;SDS011;22418;51.210;6.976;2024-03-02T06:58:30;6.93;;;2.63;;
36383;SDS011;22418;51.210;6.976;2024-03-02T07:01:01;6.50;;;1.90;;
36383;SDS011;22418;51.210;6.976;2024-03-02T07:03:31;5.03;;;2.03;;
36383;SDS011;22418;51.210;6.976;2024-03-02T07:06:02;5.82;;;2.08;;
36383;SDS011;22418;51.210;6.976;2024-03-02T07:08:33;7.25;;;2.67;;
36383;SDS011;22418;51.210;6.976;2024-03-02T07:11:04;6.50;;;2.33;;
36383;SDS011;22418;51.210;6.976;2024-03-02T07:13:34;4.03;;;1.93;;
36383;SDS011;22418;51.210;6.976;2024-03-02T07:16:05;6.38;;;2.55;;
36383;SDS011;22418;51.210;6.976;2024-03-02T07:18:54;6.55;;;2.75;;
36383;SDS011;22418;51.210;6.976;2024-03-02T07:21:27;8.13;;;2.72;;
36383;SDS011;22418;51.210;6.976;2024-03-02T07:23:57;4.88;;;2.30;;
36383;SDS011;22418;51.210;6.976;2024-03-02T07:26:29;5.20;;;2.30;;
36383;SDS011;22418;51.210;6.976;2024-03-02T07:29:01;7.07;;;2.40;;
36383;SDS011;22418;51.210;6.976;2024-03-02T07:31:31;6.43;;;2.60;;
36383;SDS011;22418;51.210;6.976;2024-03-02T07:34:02;6.80;;;2.83;;
36383;SDS011;22418;51.210;6.976;2024-03-02T07:36:33;3.95;;;2.42;;
36383;SDS011;22418;51.210;6.976;2024-03-02T07:39:03;7.90;;;2.43;;
36383;SDS011;22418;51.210;6.976;2024-03-02T07:41:34;5.67;;;2.40;;
36383;SDS011;22418;51.210;6.976;2024-03-02T07:44:05;8.13;;;2.40;;
36383;SDS011;22418;51.210;6.976;2024-03-02T07:46:35;5.67;;;2.17;;
36383;SDS011;22418;51.210;6.976;2024-03-02T07:49:06;7.57;;;2.57;;
36383;SDS011;22418;51.210;6.976;2024-03-02T07:51:36;4.40;;;2.20;;
36383;SDS011;22418;51.210;6.976;2024-03-02T07:54:07;6.83;;;2.50;;
36383;SDS011;22418;51.210;6.976;2024-03-02T07:56:38;5.83;;;2.20;;
36383;SDS011;22418;51.210;6.976;2024-03-02T07:59:08;3.83;;;1.80;;
36383;SDS011;22418;51.210;6.976;2024-03-02T08:01:39;3.80;;;2.13;;
36383;SDS011;22418;51.210;6.976;2024-03-02T08:04:09;6.53;;;2.27;;
36383;SDS011;22418;51.210;6.976;2024-03-02T08:06:40;4.93;;;1.90;;
36383;SDS011;22418;51.210;6.976;2024-03-02T08:09:11;5.10;;;1.93;;
36383;SDS011;22418;51.210;6.976;2024-03-02T08:11:41;3.03;;;1.83;;
36383;SDS011;22418;51.210;6.976;2024-03-02T08:14:12;7.17;;;2.03;;
36383;SDS011;22418;51.210;6.976;2024-03-02T08:16:42;3.60;;;2.10;;
36383;SDS011;22418;51.210;6.976;2024-03-02T08:19:13;5.60;;;2.17;;
36383;SDS011;22418;51.210;6.976;2024-03-02T08:21:43;3.63;;;1.97;;
36383;SDS011;22418;51.210;6.976;2024-03-02T08:24:14;5.75;;;2.00;;
36383;SDS011;22418;51.210;6.976;2024-03-02T08:26:45;8.37;;;1.90;;
36383;SDS011;22418;51.210;6.976;2024-03-02T08:29:15;7.10;;;2.20;;
36383;SDS011;22418;51.210;6.976;2024-03-02T08:31:46;5.40;;;2.20;;
36383;SDS011;22418;51.210;6.976;2024-03-02T08:34:17;3.30;;;1.80;;
36383;SDS011;22418;51.210;6.976;2024-03-02T08:36:47;6.27;;;2.00;;
36383;SDS011;22418;51.210;6.976;2024-03-02T08:39:18;7.00;;;1.98;;
36383;SDS011;22418;51.210;6.976;2024-03-02T08:41:49;3.60;;;1.67;;
36383;SDS011;22418;51.210;6.976;2024-03-02T08:44:20;5.25;;;2.20;;
36383;SDS011;22418;51.210;6.976;2024-03-02T08:46:51;5.07;;;1.92;;
36383;SDS011;22418;51.210;6.976;2024-03-02T08:49:22;3.83;;;2.00;;
36383;SDS011;22418;51.210;6.976;2024-03-02T08:51:52;7.23;;;2.20;;
36383;SDS011;22418;51.210;6.976;2024-03-02T08:54:26;4.07;;;1.95;;
36383;SDS011;22418;51.210;6.976;2024-03-02T08:56:56;3.83;;;1.63;;
36383;SDS011;22418;51.210;6.976;2024-03-02T08:59:27;3.90;;;2.07;;
36383;SDS011;22418;51.210;6.976;2024-03-02T09:01:57;3.20;;;1.83;;
36383;SDS011;22418;51.210;6.976;2024-03-02T09:04:29;4.38;;;1.90;;
36383;SDS011;22418;51.210;6.976;2024-03-02T09:06:59;4.53;;;1.80;;
36383;SDS011;22418;51.210;6.976;2024-03-02T09:09:30;4.47;;;1.70;;
36383;SDS011;22418;51.210;6.976;2024-03-02T09:14:32;6.20;;;1.53;;
36383;SDS011;22418;51.210;6.976;2024-03-02T09:17:03;5.50;;;1.90;;
36383;SDS011;22418;51.210;6.976;2024-03-02T09:19:34;4.50;;;1.57;;
36383;SDS011;22418;51.210;6.976;2024-03-02T09:22:04;5.47;;;1.40;;
36383;SDS011;22418;51.210;6.976;2024-03-02T09:24:35;8.32;;;1.80;;
36383;SDS011;22418;51.210;6.976;2024-03-02T09:27:06;6.83;;;1.73;;
36383;SDS011;22418;51.210;6.976;2024-03-02T09:29:36;8.63;;;1.93;;
36383;SDS011;22418;51.210;6.976;2024-03-02T09:32:08;3.80;;;1.35;;
36383;SDS011;22418;51.210;6.976;2024-03-02T09:34:42;6.40;;;1.90;;
36383;SDS011;22418;51.210;6.976;2024-03-02T09:37:13;6.47;;;1.88;;
36383;SDS011;22418;51.210;6.976;2024-03-02T09:39:44;4.33;;;1.33;;
36383;SDS011;22418;51.210;6.976;2024-03-02T09:42:15;4.18;;;1.60;;
36383;SDS011;22418;51.210;6.976;2024-03-02T09:44:46;3.97;;;1.23;;
36383;SDS011;22418;51.210;6.976;2024-03-02T09:47:18;4.43;;;1.40;;
36383;SDS011;22418;51.210;6.976;2024-03-02T09:49:48;5.73;;;1.50;;
36383;SDS011;22418;51.210;6.976;2024-03-02T09:52:19;4.90;;;1.52;;
36383;SDS011;22418;51.210;6.976;2024-03-02T09:54:50;4.67;;;1.30;;
36383;SDS011;22418;51.210;6.976;2024-03-02T09:57:20;6.13;;;1.60;;
36383;SDS011;22418;51.210;6.976;2024-03-02T09:59:51;3.43;;;1.40;;
36383;SDS011;22418;51.210;6.976;2024-03-02T10:02:21;2.93;;;1.30;;
36383;SDS011;22418;51.210;6.976;2024-03-02T10:04:54;4.57;;;2.30;;
36383;SDS011;22418;51.210;6.976;2024-03-02T10:07:27;4.57;;;1.43;;
36383;SDS011;22418;51.210;6.976;2024-03-02T10:09:58;5.30;;;1.40;;
36383;SDS011;22418;51.210;6.976;2024-03-02T10:12:43;2.78;;;1.20;;
36383;SDS011;22418;51.210;6.976;2024-03-02T10:15:13;2.73;;;1.00;;
36383;SDS011;22418;51.210;6.976;2024-03-02T10:17:54;4.80;;;1.17;;
36383;SDS011;22418;51.210;6.976;2024-03-02T10:20:24;2.93;;;1.20;;
36383;SDS011;22418;51.210;6.976;2024-03-02T10:25:39;2.88;;;0.90;;
36383;SDS011;22418;51.210;6.976;2024-03-02T10:28:10;5.40;;;1.00;;
36383;SDS011;22418;51.210;6.976;2024-03-02T10:30:41;3.03;;;1.10;;
36383;SDS011;22418;51.210;6.976;2024-03-02T10:33:11;2.07;;;0.73;;
36383;SDS011;22418;51.210;6.976;2024-03-02T10:35:42;3.53;;;0.73;;
36383;SDS011;22418;51.210;6.976;2024-03-02T10:38:14;6.15;;;1.05;;
36383;SDS011;22418;51.210;6.976;2024-03-02T10:40:48;1.90;;;0.70;;
36383;SDS011;22418;51.210;6.976;2024-03-02T10:43:19;2.22;;;1.10;;
36383;SDS011;22418;51.210;6.976;2024-03-02T10:45:50;3.35;;;1.05;;
36383;SDS011;22418;51.210;6.976;2024-03-02T10:48:22;5.22;;;1.20;;
36383;SDS011;22418;51.210;6.976;2024-03-02T10:50:55;3.38;;;1.27;;
36383;SDS011;22418;51.210;6.976;2024-03-02T10:53:31;3.45;;;1.48;;
36383;SDS011;22418;51.210;6.976;2024-03-02T10:56:01;6.15;;;1.60;;
36383;SDS011;22418;51.210;6.976;2024-03-02T10:58:37;3.15;;;1.10;;
36383;SDS011;22418;51.210;6.976;2024-03-02T11:01:08;5.85;;;1.67;;
36383;SDS011;22418;51.210;6.976;2024-03-02T11:03:42;7.95;;;1.55;;
36383;SDS011;22418;51.210;6.976;2024-03-02T11:06:14;3.00;;;1.15;;
36383;SDS011;22418;51.210;6.976;2024-03-02T11:08:45;3.13;;;1.27;;
36383;SDS011;22418;51.210;6.976;2024-03-02T11:11:22;4.70;;;1.42;;
36383;SDS011;22418;51.210;6.976;2024-03-02T11:14:00;2.63;;;1.45;;
36383;SDS011;22418;51.210;6.976;2024-03-02T11:16:38;6.60;;;1.38;;
36383;SDS011;22418;51.210;6.976;2024-03-02T11:19:13;6.13;;;1.15;;
36383;SDS011;22418;51.210;6.976;2024-03-02T11:21:45;3.70;;;1.33;;
36383;SDS011;22418;51.210;6.976;2024-03-02T11:27:03;2.90;;;1.00;;
36383;SDS011;22418;51.210;6.976;2024-03-02T11:32:16;4.80;;;1.10;;
36383;SDS011;22418;51.210;6.976;2024-03-02T11:34:48;2.85;;;1.30;;
36383;SDS011;22418;51.210;6.976;2024-03-02T11:37:20;3.63;;;0.80;;
36383;SDS011;22418;51.210;6.976;2024-03-02T11:39:51;2.95;;;0.90;;
36383;SDS011;22418;51.210;6.976;2024-03-02T11:42:21;2.83;;;1.03;;
36383;SDS011;22418;51.210;6.976;2024-03-02T11:44:52;3.17;;;1.10;;
36383;SDS011;22418;51.210;6.976;2024-03-02T11:47:27;4.00;;;1.10;;
36383;SDS011;22418;51.210;6.976;2024-03-02T11:50:02;6.05;;;1.20;;
36383;SDS011;22418;51.210;6.976;2024-03-02T11:52:36;2.90;;;1.50;;
36383;SDS011;22418;51.210;6.976;2024-03-02T11:55:10;4.43;;;0.90;;
36383;SDS011;22418;51.210;6.976;2024-03-02T11:57:42;4.20;;;1.00;;
36383;SDS011;22418;51.210;6.976;2024-03-02T12:00:16;6.70;;;1.10;;
36383;SDS011;22418;51.210;6.976;2024-03-02T12:03:02;4.18;;;0.90;;
36383;SDS011;22418;51.210;6.976;2024-03-02T12:05:39;2.55;;;0.90;;
36383;SDS011;22418;51.210;6.976;2024-03-02T12:08:10;3.80;;;1.20;;
36383;SDS011;22418;51.210;6.976;2024-03-02T12:10:42;2.80;;;1.20;;
36383;SDS011;22418;51.210;6.976;2024-03-02T12:13:13;4.03;;;1.00;;
36383;SDS011;22418;51.210;6.976;2024-03-02T12:15:44;2.40;;;1.10;;
36383;SDS011;22418;51.210;6.976;2024-03-02T12:18:14;3.17;;;1.13;;
36383;SDS011;22418;51.210;6.976;2024-03-02T12:20:45;3.23;;;1.00;;
36383;SDS011;22418;51.210;6.976;2024-03-02T12:23:15;4.13;;;1.07;;
36383;SDS011;22418;51.210;6.976;2024-03-02T12:25:48;2.00;;;1.00;;
36383;SDS011;22418;51.210;6.976;2024-03-02T12:28:19;3.38;;;0.85;;
36383;SDS011;22418;51.210;6.976;2024-03-02T12:30:50;4.63;;;0.82;;
36383;SDS011;22418;51.210;6.976;2024-03-02T12:33:21;1.75;;;0.80;;
36383;SDS011;22418;51.210;6.976;2024-03-02T12:35:53;1.52;;;0.80;;
36383;SDS011;22418;51.210;6.976;2024-03-02T12:38:23;2.33;;;0.90;;
36383;SDS011;22418;51.210;6.976;2024-03-02T12:40:55;3.20;;;0.95;;
36383;SDS011;22418;51.210;6.976;2024-03-02T12:43:29;2.03;;;0.70;;
36383;SDS011;22418;51.210;6.976;2024-03-02T12:46:01;2.63;;;1.35;;
36383;SDS011;22418;51.210;6.976;2024-03-02T12:48:32;1.70;;;0.82;;
36383;SDS011;22418;51.210;6.976;2024-03-02T12:51:04;2.70;;;1.00;;
36383;SDS011;22418;51.210;6.976;2024-03-02T12:53:37;2.60;;;1.10;;
36383;SDS011;22418;51.210;6.976;2024-03-02T12:56:08;2.50;;;1.10;;
36383;SDS011;22418;51.210;6.976;2024-03-02T12:58:39;1.87;;;0.77;;
36383;SDS011;22418;51.210;6.976;2024-03-02T13:01:11;1.95;;;0.77;;
36383;SDS011;22418;51.210;6.976;2024-03-02T13:03:45;2.13;;;0.80;;
36383;SDS011;22418;51.210;6.976;2024-03-02T13:06:17;2.38;;;1.35;;
36383;SDS011;22418;51.210;6.976;2024-03-02T13:08:49;4.35;;;1.10;;
36383;SDS011;22418;51.210;6.976;2024-03-02T13:11:20;4.30;;;1.40;;
36383;SDS011;22418;51.210;6.976;2024-03-02T13:13:52;2.15;;;0.90;;
36383;SDS011;22418;51.210;6.976;2024-03-02T13:16:23;4.27;;;1.13;;
36383;SDS011;22418;51.210;6.976;2024-03-02T13:18:53;3.30;;;1.10;;
36383;SDS011;22418;51.210;6.976;2024-03-02T13:21:25;2.60;;;0.80;;
36383;SDS011;22418;51.210;6.976;2024-03-02T13:23:56;1.83;;;0.90;;
36383;SDS011;22418;51.210;6.976;2024-03-02T13:26:26;3.07;;;0.90;;
36383;SDS011;22418;51.210;6.976;2024-03-02T13:28:57;1.88;;;0.80;;
36383;SDS011;22418;51.210;6.976;2024-03-02T13:31:28;1.87;;;0.80;;
36383;SDS011;22418;51.210;6.976;2024-03-02T13:33:58;3.53;;;1.00;;
36383;SDS011;22418;51.210;6.976;2024-03-02T13:36:29;2.50;;;1.10;;
36383;SDS011;22418;51.210;6.976;2024-03-02T13:38:59;1.93;;;0.70;;
36383;SDS011;22418;51.210;6.976;2024-03-02T13:41:30;1.40;;;0.80;;
36383;SDS011;22418;51.210;6.976;2024-03-02T13:44:01;1.70;;;0.80;;
36383;SDS011;22418;51.210;6.976;2024-03-02T13:46:32;2.25;;;0.90;;
36383;SDS011;22418;51.210;6.976;2024-03-02T13:49:03;2.77;;;0.83;;
36383;SDS011;22418;51.210;6.976;2024-03-02T13:51:34;2.23;;;1.00;;
36383;SDS011;22418;51.210;6.976;2024-03-02T13:54:04;1.53;;;0.93;;
36383;SDS011;22418;51.210;6.976;2024-03-02T13:56:35;1.63;;;0.98;;
36383;SDS011;22418;51.210;6.976;2024-03-02T13:59:08;2.75;;;0.90;;
36383;SDS011;22418;51.210;6.976;2024-03-02T14:01:39;2.43;;;0.63;;
36383;SDS011;22418;51.210;6.976;2024-03-02T14:04:10;3.30;;;1.23;;
36383;SDS011;22418;51.210;6.976;2024-03-02T14:06:42;3.88;;;0.80;;
36383;SDS011;22418;51.210;6.976;2024-03-02T14:09:13;1.45;;;0.82;;
36383;SDS011;22418;51.210;6.976;2024-03-02T14:11:44;1.23;;;0.70;;
36383;SDS011;22418;51.210;6.976;2024-03-02T14:14:15;2.53;;;1.00;;
36383;SDS011;22418;51.210;6.976;2024-03-02T14:16:45;2.00;;;0.90;;
36383;SDS011;22418;51.210;6.976;2024-03-02T14:19:16;2.43;;;0.90;;
36383;SDS011;22418;51.210;6.976;2024-03-02T14:21:47;1.80;;;0.70;;
36383;SDS011;22418;51.210;6.976;2024-03-02T14:24:17;3.58;;;0.60;;
36383;SDS011;22418;51.210;6.976;2024-03-02T14:26:48;1.53;;;0.70;;
36383;SDS011;22418;51.210;6.976;2024-03-02T14:29:18;1.50;;;0.80;;
36383;SDS011;22418;51.210;6.976;2024-03-02T14:31:49;1.47;;;0.80;;
36383;SDS011;22418;51.210;6.976;2024-03-02T14:34:20;1.63;;;0.77;;
36383;SDS011;22418;51.210;6.976;2024-03-02T14:36:50;1.63;;;0.93;;
36383;SDS011;22418;51.210;6.976;2024-03-02T14:39:21;2.30;;;0.80;;
36383;SDS011;22418;51.210;6.976;2024-03-02T14:41:52;2.63;;;0.85;;
36383;SDS011;22418;51.210;6.976;2024-03-02T14:44:22;1.30;;;0.90;;
36383;SDS011;22418;51.210;6.976;2024-03-02T14:46:53;4.30;;;1.00;;
36383;SDS011;22418;51.210;6.976;2024-03-02T14:49:24;1.90;;;0.90;;
36383;SDS011;22418;51.210;6.976;2024-03-02T14:51:55;2.42;;;1.00;;
36383;SDS011;22418;51.210;6.976;2024-03-02T14:54:25;1.07;;;0.57;;
36383;SDS011;22418;51.210;6.976;2024-03-02T14:56:56;2.87;;;0.90;;
36383;SDS011;22418;51.210;6.976;2024-03-02T14:59:27;1.50;;;0.80;;
36383;SDS011;22418;51.210;6.976;2024-03-02T15:01:58;4.07;;;0.90;;
36383;SDS011;22418;51.210;6.976;2024-03-02T15:04:28;3.13;;;0.80;;
36383;SDS011;22418;51.210;6.976;2024-03-02T15:06:59;3.13;;;0.90;;
36383;SDS011;22418;51.210;6.976;2024-03-02T15:09:29;4.83;;;1.27;;
36383;SDS011;22418;51.210;6.976;2024-03-02T15:12:00;1.73;;;0.90;;
36383;SDS011;22418;51.210;6.976;2024-03-02T15:14:31;4.18;;;1.23;;
36383;SDS011;22418;51.210;6.976;2024-03-02T15:17:02;3.35;;;0.98;;
36383;SDS011;22418;51.210;6.976;2024-03-02T15:19:32;1.30;;;0.80;;
36383;SDS011;22418;51.210;6.976;2024-03-02T15:22:03;1.40;;;0.80;;
36383;SDS011;22418;51.210;6.976;2024-03-02T15:24:33;2.30;;;1.20;;
36383;SDS011;22418;51.210;6.976;2024-03-02T15:27:04;3.07;;;0.93;;
36383;SDS011;22418;51.210;6.976;2024-03-02T15:29:37;1.95;;;0.90;;
36383;SDS011;22418;51.210;6.976;2024-03-02T15:32:08;1.27;;;0.68;;
36383;SDS011;22418;51.210;6.976;2024-03-02T15:34:38;1.80;;;0.70;;
36383;SDS011;22418;51.210;6.976;2024-03-02T15:37:09;4.07;;;0.90;;
36383;SDS011;22418;51.210;6.976;2024-03-02T15:39:40;1.98;;;0.95;;